createdAt,value
2018-10-16T00:02:01.727Z,6.87
2018-10-16T00:07:05.654Z,7.10
2018-10-16T00:12:09.766Z,7.03
2018-10-16T00:17:13.313Z,6.80
2018-10-16T00:22:16.818Z,7.47
2018-10-16T00:27:20.421Z,7.23
2018-10-16T00:32:24.072Z,6.67
2018-10-16T00:37:27.760Z,6.47
2018-10-16T00:42:31.339Z,7.20
2018-10-16T00:47:34.992Z,6.57
2018-10-16T00:52:39.116Z,7.17
2018-10-16T00:57:42.669Z,6.20
2018-10-16T01:02:46.266Z,6.73
2018-10-16T01:07:49.891Z,6.20
2018-10-16T01:12:53.606Z,6.47
2018-10-16T01:17:57.126Z,6.83
2018-10-16T01:23:00.744Z,6.43
2018-10-16T01:28:04.296Z,6.17
2018-10-16T01:33:07.981Z,6.67
2018-10-16T01:38:11.601Z,6.97
2018-10-16T01:43:15.322Z,6.40
2018-10-16T01:48:18.885Z,6.50
2018-10-16T01:53:22.560Z,6.17
2018-10-16T01:58:26.179Z,6.63
2018-10-16T02:03:29.808Z,6.23
2018-10-16T02:08:33.398Z,6.03
2018-10-16T02:13:37.038Z,6.50
2018-10-16T02:18:40.861Z,6.40
2018-10-16T02:23:44.445Z,6.53
2018-10-16T02:28:48.103Z,6.17
2018-10-16T02:33:51.721Z,6.37
2018-10-16T02:38:55.341Z,6.27
2018-10-16T02:43:58.928Z,6.83
2018-10-16T02:49:02.490Z,6.57
2018-10-16T02:54:06.299Z,6.67
2018-10-16T02:59:10.003Z,6.50
2018-10-16T03:04:13.641Z,6.30
2018-10-16T03:09:17.262Z,5.87
2018-10-16T03:14:20.982Z,6.03
2018-10-16T03:19:24.628Z,6.30
2018-10-16T03:24:28.297Z,6.50
2018-10-16T03:34:37.856Z,6.90
2018-10-16T03:39:41.635Z,6.60
2018-10-16T03:44:45.852Z,6.27
2018-10-16T03:49:49.385Z,6.40
2018-10-16T03:54:52.926Z,6.20
2018-10-16T03:59:56.625Z,7.30
2018-10-16T04:05:00.346Z,6.93
2018-10-16T04:10:03.746Z,6.70
2018-10-16T04:15:08.219Z,6.30
2018-10-16T04:20:11.635Z,6.37
2018-10-16T04:25:15.025Z,6.67
2018-10-16T04:30:18.393Z,6.77
2018-10-16T04:35:21.767Z,7.13
2018-10-16T04:40:25.171Z,7.17
2018-10-16T04:45:28.598Z,7.23
2018-10-16T04:50:32.077Z,6.90
2018-10-16T04:55:35.493Z,7.23
2018-10-16T05:00:38.955Z,6.70
2018-10-16T05:05:42.317Z,6.87
2018-10-16T05:10:45.739Z,7.33
2018-10-16T05:15:49.120Z,7.07
2018-10-16T05:20:52.502Z,6.90
2018-10-16T05:25:55.900Z,6.57
2018-10-16T05:30:59.301Z,7.60
2018-10-16T05:36:02.654Z,7.43
2018-10-16T05:41:06.016Z,7.27
2018-10-16T05:46:09.370Z,7.20
2018-10-16T05:51:12.734Z,7.67
2018-10-16T05:56:16.103Z,7.47
2018-10-16T06:01:19.492Z,7.33
2018-10-16T06:06:22.846Z,7.60
2018-10-16T06:11:26.192Z,8.10
2018-10-16T06:16:29.650Z,7.67
2018-10-16T06:21:33.614Z,7.55
2018-10-16T06:26:37.011Z,7.70
2018-10-16T06:31:40.873Z,7.50
2018-10-16T06:36:44.238Z,7.77
2018-10-16T06:41:47.634Z,8.33
2018-10-16T06:46:51.020Z,8.10
2018-10-16T06:51:54.390Z,7.93
2018-10-16T06:56:57.771Z,7.77
2018-10-16T07:02:01.190Z,7.13
2018-10-16T07:07:04.625Z,7.93
2018-10-16T07:12:08.374Z,7.97
2018-10-16T07:17:11.941Z,8.40
2018-10-16T07:22:15.323Z,7.93
2018-10-16T07:27:18.739Z,8.13
2018-10-16T07:32:22.173Z,7.60
2018-10-16T07:37:25.533Z,7.73
2018-10-16T07:42:28.891Z,7.50
2018-10-16T07:47:32.347Z,8.07
2018-10-16T07:52:35.734Z,7.30
2018-10-16T07:57:39.221Z,8.47
2018-10-16T08:02:43.660Z,7.73
2018-10-16T08:07:47.108Z,8.23
2018-10-16T08:12:50.454Z,7.80
2018-10-16T08:17:53.935Z,8.07
2018-10-16T08:22:57.347Z,8.20
2018-10-16T08:28:00.734Z,8.10
2018-10-16T08:33:04.187Z,8.57
2018-10-16T08:38:27.388Z,8.50
2018-10-16T08:43:44.765Z,8.40
2018-10-16T08:49:00.170Z,8.00
2018-10-16T08:54:03.572Z,7.93
2018-10-16T08:59:07.044Z,8.17
2018-10-16T09:04:10.609Z,7.77
2018-10-16T09:09:18.325Z,7.83
2018-10-16T09:14:21.691Z,7.73
2018-10-16T09:19:25.167Z,7.53
2018-10-16T09:24:28.617Z,7.47
2018-10-16T09:29:31.983Z,8.30
2018-10-16T09:34:35.424Z,8.20
2018-10-16T09:39:38.831Z,8.13
2018-10-16T09:44:42.266Z,8.93
2018-10-16T09:49:45.656Z,7.93
2018-10-16T09:54:49.199Z,8.97
2018-10-16T09:59:52.647Z,8.13
2018-10-16T10:04:56.125Z,8.43
2018-10-16T10:09:59.559Z,8.03
2018-10-16T10:15:02.962Z,7.73
2018-10-16T10:20:07.257Z,8.20
2018-10-16T10:25:10.729Z,7.80
2018-10-16T10:30:14.181Z,7.77
2018-10-16T10:35:17.610Z,8.23
2018-10-16T10:40:21.032Z,8.13
2018-10-16T10:45:24.442Z,7.87
2018-10-16T10:50:28.017Z,7.67
2018-10-16T10:55:31.242Z,7.73
2018-10-16T11:00:34.715Z,8.20
2018-10-16T11:05:38.075Z,7.77
2018-10-16T11:10:41.469Z,8.13
2018-10-16T11:15:44.854Z,7.93
2018-10-16T11:20:48.322Z,7.50
2018-10-16T11:25:51.738Z,7.80
2018-10-16T11:30:55.105Z,7.47
2018-10-16T11:35:58.494Z,8.23
2018-10-16T11:41:01.878Z,7.67
2018-10-16T11:46:05.642Z,7.93
2018-10-16T11:51:09.019Z,7.97
2018-10-16T11:56:12.575Z,7.97
2018-10-16T12:01:15.895Z,7.87
2018-10-16T12:06:19.244Z,7.40
2018-10-16T12:11:23.328Z,8.13
2018-10-16T12:16:31.198Z,7.90
2018-10-16T12:21:34.617Z,7.70
2018-10-16T12:26:38.063Z,7.60
2018-10-16T12:31:41.518Z,7.93
2018-10-16T12:37:24.215Z,7.93
2018-10-16T12:42:27.554Z,7.93
2018-10-16T12:47:30.940Z,7.77
2018-10-16T12:52:34.311Z,7.80
2018-10-16T12:57:37.831Z,7.67
2018-10-16T13:02:41.215Z,7.83
2018-10-16T13:07:44.642Z,7.93
2018-10-16T13:12:48.062Z,8.23
2018-10-16T13:17:51.439Z,8.30
2018-10-16T13:22:54.882Z,8.20
2018-10-16T13:27:58.277Z,7.67
2018-10-16T13:33:01.795Z,7.40
2018-10-16T13:38:05.245Z,8.27
2018-10-16T13:43:08.639Z,7.70
2018-10-16T13:48:11.992Z,7.53
2018-10-16T13:53:15.375Z,7.30
2018-10-16T13:58:18.765Z,7.80
2018-10-16T14:03:22.261Z,7.67
2018-10-16T14:08:25.639Z,7.60
2018-10-16T14:13:29.030Z,8.13
2018-10-16T14:18:32.402Z,7.83
2018-10-16T14:23:35.754Z,7.57
2018-10-16T14:28:39.167Z,7.37
2018-10-16T14:33:42.786Z,7.80
2018-10-16T14:38:46.098Z,8.47
2018-10-16T14:43:49.571Z,8.40
2018-10-16T14:48:52.953Z,8.47
2018-10-16T14:53:56.409Z,7.20
2018-10-16T14:58:59.991Z,7.70
2018-10-16T15:04:03.409Z,7.57
2018-10-16T15:09:08.664Z,8.20
2018-10-16T15:14:12.060Z,7.70
2018-10-16T15:19:15.454Z,7.97
2018-10-16T15:24:25.671Z,8.00
2018-10-16T15:29:29.902Z,8.13
2018-10-16T15:34:33.339Z,8.17
2018-10-16T15:39:36.691Z,8.30
2018-10-16T15:44:40.086Z,7.40
2018-10-16T15:49:43.506Z,8.40
2018-10-16T15:54:46.862Z,7.97
2018-10-16T15:59:50.226Z,8.83
2018-10-16T16:04:53.603Z,7.40
2018-10-16T16:09:57.024Z,9.03
2018-10-16T16:15:00.466Z,8.67
2018-10-16T16:20:03.943Z,8.27
2018-10-16T16:25:08.998Z,8.23
2018-10-16T16:30:14.961Z,8.90
2018-10-16T16:35:18.314Z,8.43
2018-10-16T16:40:21.762Z,8.67
2018-10-16T16:45:25.181Z,9.07
2018-10-16T16:50:28.641Z,9.13
2018-10-16T16:55:32.037Z,8.83
2018-10-16T17:00:35.497Z,8.60
2018-10-16T17:05:38.914Z,8.83
2018-10-16T17:10:42.325Z,9.30
2018-10-16T17:15:45.739Z,9.40
2018-10-16T17:20:49.131Z,9.77
2018-10-16T17:25:52.875Z,10.33
2018-10-16T17:30:55.998Z,9.37
2018-10-16T17:35:59.423Z,9.50
2018-10-16T17:41:02.774Z,9.57
2018-10-16T17:46:06.267Z,10.07
2018-10-16T17:51:09.656Z,9.23
2018-10-16T17:56:13.108Z,10.27
2018-10-16T18:01:17.172Z,9.67
2018-10-16T18:06:20.553Z,9.60
2018-10-16T18:11:23.937Z,9.43
2018-10-16T18:16:27.585Z,9.70
2018-10-16T18:21:31.037Z,9.67
2018-10-16T18:26:34.419Z,10.10
2018-10-16T18:31:37.794Z,11.27
2018-10-16T18:36:41.159Z,12.43
2018-10-16T18:41:44.518Z,11.93
2018-10-16T18:46:47.931Z,11.87
2018-10-16T18:51:51.317Z,13.10
2018-10-16T18:56:54.776Z,13.67
2018-10-16T19:01:58.234Z,13.53
2018-10-16T19:07:02.034Z,12.10
2018-10-16T19:12:05.439Z,13.10
2018-10-16T19:17:08.810Z,10.97
2018-10-16T19:22:12.173Z,11.50
2018-10-16T19:27:15.608Z,11.05
2018-10-16T19:32:19.012Z,13.33
2018-10-16T19:37:22.383Z,12.37
2018-10-16T19:42:25.751Z,12.03
2018-10-16T19:47:29.111Z,11.53
2018-10-16T19:52:32.474Z,11.03
2018-10-16T19:57:35.868Z,11.63
2018-10-16T20:02:39.385Z,11.90
2018-10-16T20:07:44.316Z,12.73
2018-10-16T20:12:47.719Z,12.70
2018-10-16T20:17:51.115Z,11.70
2018-10-16T20:22:55.083Z,11.60
2018-10-16T20:27:58.543Z,11.03
2018-10-16T20:33:02.147Z,12.03
2018-10-16T20:38:05.735Z,11.90
2018-10-16T20:43:09.151Z,11.87
2018-10-16T20:48:12.628Z,11.87
2018-10-16T20:53:16.183Z,15.20
2018-10-16T20:58:19.753Z,13.73
2018-10-16T21:03:23.187Z,13.77
2018-10-16T21:08:26.605Z,13.93
2018-10-16T21:13:30.091Z,14.60
2018-10-16T21:18:33.458Z,14.40
2018-10-16T21:23:36.881Z,15.00
2018-10-16T21:28:40.239Z,14.43
2018-10-16T21:33:43.648Z,14.90
2018-10-16T21:38:47.073Z,13.97
2018-10-16T21:43:50.486Z,13.97
2018-10-16T21:48:53.950Z,13.83
2018-10-16T21:53:57.309Z,14.90
2018-10-16T21:59:00.765Z,14.83
2018-10-16T22:04:04.133Z,13.40
2018-10-16T22:09:09.578Z,13.20
2018-10-16T22:14:12.966Z,14.10
2018-10-16T22:19:16.436Z,14.07
2018-10-16T22:24:19.757Z,13.57
2018-10-16T22:29:23.156Z,14.67
2018-10-16T22:34:26.498Z,13.53
2018-10-16T22:39:29.911Z,14.17
2018-10-16T22:44:33.278Z,14.17
2018-10-16T22:49:36.730Z,15.30
2018-10-16T22:54:40.686Z,15.00
2018-10-16T22:59:44.378Z,15.07
2018-10-16T23:04:47.745Z,15.23
2018-10-16T23:09:51.159Z,16.10
2018-10-16T23:14:54.572Z,16.13
2018-10-16T23:19:57.945Z,14.77
2018-10-16T23:25:01.320Z,15.13
2018-10-16T23:30:04.993Z,15.23
2018-10-16T23:35:08.413Z,14.90
2018-10-16T23:40:11.774Z,15.67
2018-10-16T23:45:15.161Z,15.10
2018-10-16T23:50:18.582Z,15.00
2018-10-16T23:55:21.967Z,14.40
